createdAt,value
2023-03-02T00:03:01.701Z,36.05
2023-03-02T00:08:05.274Z,27.85
2023-03-02T00:13:06.850Z,44.50
2023-03-02T00:18:08.459Z,42.45
2023-03-02T00:23:11.562Z,43.72
2023-03-02T00:28:13.117Z,35.17
2023-03-02T00:33:14.932Z,34.15
2023-03-02T00:38:17.809Z,34.17
2023-03-02T00:43:19.392Z,37.70
2023-03-02T00:48:20.908Z,40.05
2023-03-02T00:53:23.794Z,43.72
2023-03-02T00:58:25.977Z,35.42
2023-03-02T01:03:27.526Z,37.67
2023-03-02T01:08:30.884Z,36.53
2023-03-02T01:13:32.438Z,38.10
2023-03-02T01:18:34.791Z,42.13
2023-03-02T01:23:37.698Z,39.92
2023-03-02T01:28:39.203Z,45.20
2023-03-02T01:33:40.757Z,37.85
2023-03-02T01:38:43.945Z,41.60
2023-03-02T01:43:45.473Z,44.58
2023-03-02T01:48:50.356Z,44.30
2023-03-02T01:53:56.389Z,37.25
2023-03-02T01:59:00.816Z,47.97
2023-03-02T02:04:02.584Z,47.70
2023-03-02T02:09:07.805Z,38.60
2023-03-02T02:14:09.878Z,44.35
2023-03-02T02:19:23.692Z,30.08
2023-03-02T02:24:33.361Z,42.05
2023-03-02T02:29:41.325Z,36.85
2023-03-02T02:34:47.900Z,39.92
2023-03-02T02:39:50.316Z,36.65
2023-03-02T02:44:56.230Z,37.58
2023-03-02T02:49:58.707Z,40.65
2023-03-02T02:55:00.286Z,36.63
2023-03-02T03:00:03.493Z,46.95
2023-03-02T03:05:05.818Z,43.45
2023-03-02T03:10:14.042Z,42.67
2023-03-02T03:15:17.238Z,42.63
2023-03-02T03:20:20.093Z,38.55
2023-03-02T03:25:25.406Z,41.25
2023-03-02T03:30:28.372Z,34.78
2023-03-02T03:35:29.956Z,42.90
2023-03-02T03:40:31.947Z,39.13
2023-03-02T03:45:34.951Z,40.60
2023-03-02T03:50:36.654Z,46.22
2023-03-02T03:55:38.182Z,37.95
2023-03-02T04:00:41.052Z,46.17
2023-03-02T04:05:42.732Z,44.40
2023-03-02T04:10:44.868Z,35.33
2023-03-02T04:15:47.800Z,39.67
2023-03-02T04:20:49.268Z,45.67
2023-03-02T04:25:50.782Z,37.85
2023-03-02T04:30:53.774Z,45.13
2023-03-02T04:35:55.336Z,43.72
2023-03-02T04:40:57.574Z,55.45
2023-03-02T04:46:00.447Z,53.85
2023-03-02T04:51:02.000Z,60.40
2023-03-02T04:56:04.021Z,59.17
2023-03-02T05:01:06.932Z,53.30
2023-03-02T05:06:08.910Z,61.88
2023-03-02T05:11:12.460Z,64.82
2023-03-02T05:16:15.607Z,59.78
2023-03-02T05:21:18.317Z,56.80
2023-03-02T05:26:19.898Z,58.15
2023-03-02T05:31:27.475Z,58.85
2023-03-02T05:41:30.577Z,53.90
2023-03-02T05:46:33.876Z,51.95
2023-03-02T05:51:35.595Z,58.50
2023-03-02T05:56:37.090Z,51.10
2023-03-02T06:01:40.034Z,47.35
2023-03-02T06:06:41.531Z,37.97
2023-03-02T06:11:43.035Z,53.00
2023-03-02T06:16:45.969Z,51.40
2023-03-02T06:21:47.522Z,54.22
2023-03-02T06:26:49.056Z,54.22
2023-03-02T06:31:52.174Z,59.25
2023-03-02T06:36:53.837Z,60.88
2023-03-02T06:41:55.438Z,69.07
2023-03-02T06:46:58.370Z,66.72
2023-03-02T06:51:59.886Z,58.55
2023-03-02T06:57:01.454Z,57.40
2023-03-02T07:02:04.411Z,60.38
2023-03-02T07:07:05.913Z,59.10
2023-03-02T07:12:07.584Z,43.47
2023-03-02T07:17:10.569Z,56.40
2023-03-02T07:22:12.165Z,55.58
2023-03-02T07:27:13.748Z,60.38
2023-03-02T07:32:16.724Z,53.50
2023-03-02T07:37:18.208Z,51.58
2023-03-02T07:42:19.969Z,43.03
2023-03-02T07:47:22.940Z,42.40
2023-03-02T07:52:24.620Z,52.08
2023-03-02T07:57:26.186Z,51.95
2023-03-02T08:02:29.093Z,52.50
2023-03-02T08:07:30.707Z,50.13
2023-03-02T08:12:32.373Z,57.53
2023-03-02T08:17:35.226Z,54.08
2023-03-02T08:22:36.668Z,55.03
2023-03-02T08:27:38.190Z,32.55
2023-03-02T08:32:41.212Z,59.90
2023-03-02T08:37:42.862Z,50.83
2023-03-02T08:42:44.405Z,53.60
2023-03-02T08:47:47.290Z,48.72
2023-03-02T08:52:48.852Z,51.33
2023-03-02T08:57:50.440Z,52.90
2023-03-02T09:02:53.334Z,56.55
2023-03-02T09:07:55.886Z,54.30
2023-03-02T09:12:57.368Z,52.03
2023-03-02T09:18:00.398Z,48.28
2023-03-02T09:23:01.943Z,44.08
2023-03-02T09:28:03.548Z,49.58
2023-03-02T09:33:06.474Z,46.50
2023-03-02T09:38:08.066Z,46.13
2023-03-02T09:43:22.879Z,50.13
2023-03-02T09:48:38.399Z,51.75
2023-03-02T09:53:47.209Z,51.20
2023-03-02T09:58:55.726Z,54.22
2023-03-02T10:04:08.080Z,60.33
2023-03-02T10:09:10.556Z,51.85
2023-03-02T10:14:17.878Z,44.35
2023-03-02T10:19:25.047Z,47.90
2023-03-02T10:24:35.020Z,42.35
2023-03-02T10:29:47.281Z,45.30
2023-03-02T10:34:52.326Z,41.70
2023-03-02T10:39:54.422Z,36.50
2023-03-02T10:45:00.656Z,40.08
2023-03-02T10:50:03.631Z,42.22
2023-03-02T10:55:12.503Z,43.05
2023-03-02T11:00:18.092Z,44.03
2023-03-02T11:05:32.819Z,46.08
2023-03-02T11:10:36.282Z,42.33
2023-03-02T11:15:45.720Z,41.22
2023-03-02T11:20:52.671Z,42.97
2023-03-02T11:25:57.676Z,43.37
2023-03-02T11:31:02.434Z,44.78
2023-03-02T11:36:12.409Z,44.38
2023-03-02T11:41:24.530Z,47.88
2023-03-02T11:46:28.300Z,42.95
2023-03-02T11:51:35.513Z,39.72
2023-03-02T11:56:39.495Z,37.42
2023-03-02T12:01:42.318Z,36.92
2023-03-02T12:06:45.523Z,39.78
2023-03-02T12:11:55.099Z,40.20
2023-03-02T12:17:17.531Z,41.30
2023-03-02T12:22:30.038Z,34.35
2023-03-02T12:27:36.471Z,40.72
2023-03-02T12:32:38.298Z,37.20
2023-03-02T12:37:47.057Z,38.75
2023-03-02T12:43:12.421Z,38.33
2023-03-02T12:48:26.412Z,40.10
2023-03-02T12:53:29.796Z,40.78
2023-03-02T12:58:31.318Z,38.55
2023-03-02T13:03:33.069Z,40.10
2023-03-02T13:08:36.234Z,37.15
2023-03-02T13:13:40.824Z,39.97
2023-03-02T13:18:42.556Z,41.67
2023-03-02T13:23:47.712Z,38.40
2023-03-02T13:28:59.737Z,44.03
2023-03-02T13:34:01.607Z,43.80
2023-03-02T13:39:07.566Z,42.45
2023-03-02T13:44:18.553Z,43.95
2023-03-02T13:49:28.364Z,47.47
2023-03-02T13:54:34.169Z,43.00
2023-03-02T13:59:35.791Z,44.80
2023-03-02T14:04:37.350Z,50.80
2023-03-02T14:09:40.272Z,49.00
2023-03-02T14:14:43.289Z,47.70
2023-03-02T14:19:45.970Z,46.38
2023-03-02T14:24:49.183Z,44.65
2023-03-02T14:29:50.798Z,50.47
2023-03-02T14:34:52.451Z,52.20
2023-03-02T14:39:55.832Z,51.63
2023-03-02T14:44:58.520Z,45.88
2023-03-02T14:50:01.271Z,42.75
2023-03-02T14:55:07.733Z,45.97
2023-03-02T15:00:14.257Z,46.72
2023-03-02T15:05:15.966Z,43.20
2023-03-02T15:10:21.237Z,44.58
2023-03-02T15:15:22.726Z,44.78
2023-03-02T15:20:24.292Z,49.67
2023-03-02T15:25:27.777Z,52.03
2023-03-02T15:30:29.381Z,43.38
2023-03-02T15:35:31.025Z,44.60
2023-03-02T15:40:35.327Z,47.42
2023-03-02T15:45:37.009Z,50.00
2023-03-02T15:50:38.623Z,47.08
2023-03-02T15:55:41.704Z,59.08
2023-03-02T16:00:43.464Z,51.97
2023-03-02T16:05:45.301Z,55.65
2023-03-02T16:10:56.867Z,53.22
2023-03-02T16:16:00.803Z,49.90
2023-03-02T16:21:02.282Z,54.03
2023-03-02T16:26:09.458Z,52.65
2023-03-02T16:31:13.129Z,58.17
2023-03-02T16:36:14.738Z,49.38
2023-03-02T16:41:19.554Z,47.78
2023-03-02T16:46:22.176Z,54.90
2023-03-02T16:51:23.742Z,56.58
2023-03-02T16:56:26.641Z,55.50
2023-03-02T17:01:28.556Z,55.95
2023-03-02T17:06:30.169Z,52.60
2023-03-02T17:11:33.076Z,54.42
2023-03-02T17:16:34.698Z,58.97
2023-03-02T17:21:36.257Z,59.17
2023-03-02T17:26:39.131Z,54.50
2023-03-02T17:31:40.745Z,54.55
2023-03-02T17:36:42.373Z,58.97
2023-03-02T17:41:45.250Z,70.55
2023-03-02T17:46:46.845Z,56.17
2023-03-02T17:51:48.407Z,66.75
2023-03-02T17:56:51.557Z,69.55
2023-03-02T18:01:53.080Z,67.22
2023-03-02T18:06:54.634Z,68.78
2023-03-02T18:11:57.530Z,84.85
2023-03-02T18:16:59.306Z,78.20
2023-03-02T18:22:01.160Z,75.38
2023-03-02T18:27:04.147Z,78.53
2023-03-02T18:32:05.935Z,77.25
2023-03-02T18:37:07.859Z,75.15
2023-03-02T18:42:12.750Z,73.82
2023-03-02T18:47:16.526Z,80.93
2023-03-02T18:52:18.733Z,81.68
2023-03-02T18:57:21.608Z,81.43
2023-03-02T19:02:23.265Z,83.88
2023-03-02T19:07:24.983Z,83.88
2023-03-02T19:12:27.926Z,78.80
2023-03-02T19:17:29.498Z,91.05
2023-03-02T19:22:31.082Z,84.57
2023-03-02T19:27:34.193Z,85.30
2023-03-02T19:32:37.422Z,79.93
2023-03-02T19:37:38.983Z,76.80
2023-03-02T19:42:41.818Z,81.40
2023-03-02T19:47:43.443Z,80.75
2023-03-02T19:52:45.041Z,77.45
2023-03-02T19:57:48.376Z,82.35
2023-03-02T20:02:49.924Z,77.43
2023-03-02T20:07:52.007Z,82.60
2023-03-02T20:12:55.027Z,82.90
2023-03-02T20:17:57.478Z,82.35
2023-03-02T20:22:59.373Z,90.03
2023-03-02T20:28:03.762Z,88.05
2023-03-02T20:33:06.826Z,96.47
2023-03-02T20:38:10.932Z,94.93
2023-03-02T20:43:14.132Z,94.28
2023-03-02T20:48:15.808Z,90.60
2023-03-02T20:53:18.125Z,90.13
2023-03-02T20:58:21.103Z,91.78
2023-03-02T21:03:22.780Z,94.15
2023-03-02T21:08:24.696Z,96.50
2023-03-02T21:13:27.579Z,93.43
2023-03-02T21:18:29.194Z,119.10
2023-03-02T21:23:30.788Z,105.00
2023-03-02T21:28:33.597Z,98.55
2023-03-02T21:33:35.226Z,104.72
2023-03-02T21:38:36.750Z,103.78
2023-03-02T21:43:39.674Z,105.75
2023-03-02T21:48:41.484Z,102.15
2023-03-02T21:53:43.000Z,95.63
2023-03-02T21:58:46.610Z,100.10
2023-03-02T22:03:48.295Z,105.97
2023-03-02T22:08:50.507Z,102.47
2023-03-02T22:13:55.411Z,103.05
2023-03-02T22:18:58.495Z,101.45
2023-03-02T22:24:20.514Z,105.88
2023-03-02T22:29:25.522Z,98.07
2023-03-02T22:34:30.592Z,106.90
2023-03-02T22:39:33.457Z,111.65
2023-03-02T22:44:36.415Z,97.97
2023-03-02T22:49:37.859Z,99.80
2023-03-02T22:54:39.468Z,104.25
2023-03-02T22:59:42.351Z,96.03
2023-03-02T23:04:48.104Z,102.13
2023-03-02T23:09:49.675Z,101.35
2023-03-02T23:14:54.652Z,97.57
2023-03-02T23:19:56.273Z,102.38
2023-03-02T23:24:57.801Z,104.28
2023-03-02T23:30:00.741Z,103.93
2023-03-02T23:35:02.275Z,101.13
2023-03-02T23:40:04.559Z,100.28
2023-03-02T23:45:09.289Z,105.13
2023-03-02T23:50:12.615Z,108.68
2023-03-02T23:55:14.150Z,99.70
